Time;durP1;ratioP1;P1;durP2;ratioP2;P2;SDS_P1;SDS_P2;PMS_P1;PMS_P2;Temp;Humidity;BMP_temperature;BMP_pressure;BME280_temperature;BME280_humidity;BME280_pressure;Samples;Min_cycle;Max_cycle;Signal;HPM_P1;HPM_P2
2021/09/20 00:07:03;;;;;;;8.82;2.40;;;19.70;63.80;;;;;;20829385;28;20427;-57
2021/09/20 00:17:03;;;;;;;9.82;3.13;;;19.70;63.80;;;;;;20828395;28;20442;-57
2021/09/20 00:27:06;;;;;;;3.65;1.70;;;19.60;63.70;;;;;;20826803;28;20056;-58
2021/09/20 00:37:07;;;;;;;5.43;2.35;;;19.60;63.60;;;;;;20826687;28;20025;-56
2021/09/20 00:47:07;;;;;;;2.72;1.60;;;19.60;63.70;;;;;;20825141;28;20040;-58
2021/09/20 00:57:09;;;;;;;7.13;2.67;;;19.60;63.50;;;;;;20825781;28;20468;-56
2021/09/20 01:07:09;;;;;;;3.20;2.00;;;19.60;63.50;;;;;;20832353;28;20507;-56
2021/09/20 01:17:10;;;;;;;3.35;2.13;;;19.60;63.40;;;;;;20831154;28;20056;-57
2021/09/20 01:27:15;;;;;;;3.50;1.85;;;19.60;63.30;;;;;;20830770;28;20025;-57
2021/09/20 01:37:16;;;;;;;4.72;2.53;;;19.60;63.40;;;;;;20828762;28;20022;-56
2021/09/20 01:47:16;;;;;;;3.72;2.08;;;19.60;63.30;;;;;;20830330;28;20082;-57
2021/09/20 01:57:17;;;;;;;3.22;2.03;;;19.50;63.20;;;;;;20830057;28;20127;-58
2021/09/20 02:07:17;;;;;;;4.43;1.95;;;19.50;63.20;;;;;;20828663;28;20033;-56
2021/09/20 02:17:18;;;;;;;4.20;1.77;;;19.50;63.10;;;;;;20830477;28;20041;-55
2021/09/20 02:27:19;;;;;;;4.22;1.85;;;19.50;63.10;;;;;;20830422;28;20037;-56
2021/09/20 02:37:19;;;;;;;4.90;2.17;;;19.50;63.10;;;;;;20830812;28;20029;-56
2021/09/20 02:47:20;;;;;;;3.42;1.75;;;19.50;63.10;;;;;;20830765;28;20100;-55
2021/09/20 02:57:20;;;;;;;2.63;2.13;;;19.50;63.10;;;;;;20831374;28;20044;-57
2021/09/20 03:07:21;;;;;;;2.65;1.58;;;19.50;63.00;;;;;;20828844;28;20037;-58
2021/09/20 03:17:21;;;;;;;2.78;1.60;;;19.50;62.90;;;;;;20833688;28;20041;-57
2021/09/20 03:27:22;;;;;;;2.40;1.63;;;19.50;63.00;;;;;;20843290;28;20108;-57
2021/09/20 03:37:23;;;;;;;5.68;1.83;;;19.40;62.90;;;;;;20841017;28;20116;-57
2021/09/20 03:47:23;;;;;;;2.28;1.45;;;19.40;62.80;;;;;;20835777;28;20076;-53
2021/09/20 03:57:24;;;;;;;2.20;1.27;;;19.40;62.80;;;;;;20830880;28;20033;-53
2021/09/20 04:07:24;;;;;;;3.40;1.65;;;19.40;62.80;;;;;;20830322;28;20615;-53
2021/09/20 04:17:25;;;;;;;2.20;1.20;;;19.40;62.80;;;;;;20826541;28;20106;-57
2021/09/20 04:27:25;;;;;;;3.25;1.40;;;19.40;62.80;;;;;;20827482;28;20072;-57
2021/09/20 04:37:26;;;;;;;2.87;1.20;;;19.40;62.70;;;;;;20827096;28;20032;-56
2021/09/20 04:47:27;;;;;;;2.45;1.73;;;19.40;62.70;;;;;;20826744;28;20456;-58
2021/09/20 04:57:27;;;;;;;2.47;1.45;;;19.40;62.70;;;;;;20833657;28;20057;-58
2021/09/20 05:07:28;;;;;;;1.88;1.10;;;19.40;62.70;;;;;;20815275;28;20060;-56
2021/09/20 05:17:28;;;;;;;3.42;2.10;;;19.40;62.60;;;;;;20833889;22;20049;-56
2021/09/20 05:27:29;;;;;;;5.72;1.98;;;19.40;62.60;;;;;;20822109;28;20514;-53
2021/09/20 05:37:29;;;;;;;6.85;1.45;;;19.30;62.60;;;;;;20810548;28;20033;-48
2021/09/20 05:47:30;;;;;;;12.30;2.38;;;19.30;62.60;;;;;;20819519;28;20021;-50
2021/09/20 05:57:30;;;;;;;19.80;2.72;;;19.30;62.60;;;;;;20819839;28;20064;-54
2021/09/20 06:07:31;;;;;;;8.98;2.65;;;19.30;62.70;;;;;;20819268;28;20022;-51
2021/09/20 06:17:32;;;;;;;24.95;4.65;;;19.30;62.70;;;;;;20818278;28;20046;-55
2021/09/20 06:27:33;;;;;;;24.45;4.82;;;19.30;62.40;;;;;;20818138;28;20061;-55
2021/09/20 06:37:33;;;;;;;22.08;4.32;;;19.30;62.10;;;;;;20818834;28;20052;-56
2021/09/20 06:47:34;;;;;;;15.87;4.40;;;19.30;61.90;;;;;;20816526;28;20504;-53
2021/09/20 06:57:35;;;;;;;12.13;3.57;;;19.30;61.90;;;;;;20819776;28;20080;-53
2021/09/20 07:07:35;;;;;;;16.50;4.40;;;19.30;61.80;;;;;;20804585;28;20072;-53
2021/09/20 07:17:36;;;;;;;22.95;4.50;;;19.30;61.90;;;;;;20796062;28;20487;-54
2021/09/20 07:27:38;;;;;;;15.07;3.42;;;19.30;60.90;;;;;;20828864;28;20025;-53
2021/09/20 07:37:39;;;;;;;18.30;4.05;;;19.40;60.50;;;;;;20826909;28;20038;-53
2021/09/20 07:47:40;;;;;;;21.85;3.95;;;19.40;61.20;;;;;;20827436;28;20061;-53
2021/09/20 07:57:41;;;;;;;17.67;3.55;;;19.50;60.90;;;;;;20825995;28;20025;-56
2021/09/20 08:07:41;;;;;;;16.33;3.83;;;19.50;60.00;;;;;;20820199;28;20462;-52
2021/09/20 08:17:42;;;;;;;10.83;3.17;;;19.50;59.90;;;;;;20823391;28;20092;-52
2021/09/20 08:27:43;;;;;;;16.50;3.53;;;19.50;60.40;;;;;;20822894;28;20459;-55
2021/09/20 08:37:44;;;;;;;8.32;3.35;;;19.50;60.00;;;;;;20821670;28;20380;-55
2021/09/20 08:47:48;;;;;;;18.38;3.45;;;19.50;60.00;;;;;;20820523;28;20045;-56
2021/09/20 08:57:49;;;;;;;35.75;4.68;;;19.50;59.70;;;;;;20820392;28;20039;-54
2021/09/20 09:08:03;;;;;;;11.40;2.63;;;19.60;59.50;;;;;;20820722;28;20053;-53
2021/09/20 09:18:05;;;;;;;12.07;2.15;;;19.60;59.70;;;;;;20819179;28;20021;-55
2021/09/20 09:28:21;;;;;;;12.77;2.80;;;19.60;58.90;;;;;;20818795;28;20025;-54
2021/09/20 09:38:22;;;;;;;10.05;2.53;;;19.60;59.40;;;;;;20817215;28;20480;-56
2021/09/20 09:48:26;;;;;;;8.55;2.83;;;19.60;58.90;;;;;;20816447;28;20040;-57
2021/09/20 09:58:27;;;;;;;9.38;1.88;;;19.60;59.00;;;;;;20815745;28;20487;-58
2021/09/20 10:08:28;;;;;;;6.30;2.25;;;19.60;58.50;;;;;;20815276;28;20507;-58
2021/09/20 10:18:29;;;;;;;9.63;2.40;;;19.70;58.20;;;;;;20815287;28;20403;-58
2021/09/20 10:28:30;;;;;;;6.10;1.67;;;19.70;57.60;;;;;;20825024;28;20124;-56
2021/09/20 10:38:32;;;;;;;6.15;1.48;;;19.70;57.20;;;;;;20827232;28;20156;-56
2021/09/20 10:48:47;;;;;;;4.75;1.77;;;19.70;57.10;;;;;;20830226;28;20163;-53
2021/09/20 10:59:10;;;;;;;6.45;1.92;;;19.70;56.80;;;;;;20829237;28;20040;-52
2021/09/20 11:09:10;;;;;;;8.95;2.28;;;19.80;57.20;;;;;;20830952;28;20029;-55
2021/09/20 11:19:31;;;;;;;7.97;2.28;;;19.70;57.80;;;;;;20828568;28;20407;-57
2021/09/20 11:29:32;;;;;;;10.90;2.03;;;19.80;58.60;;;;;;20827172;28;20076;-54
2021/09/20 11:39:48;;;;;;;4.13;1.90;;;19.80;57.70;;;;;;20826315;28;20541;-58
2021/09/20 11:49:51;;;;;;;9.27;2.35;;;19.90;57.00;;;;;;20823279;28;20130;-54
2021/09/20 11:59:57;;;;;;;3.53;1.08;;;19.90;56.60;;;;;;20796518;28;20551;-56
2021/09/20 12:09:59;;;;;;;6.00;1.60;;;19.90;56.20;;;;;;20796997;28;20030;-54
2021/09/20 12:19:59;;;;;;;3.05;1.35;;;19.90;56.60;;;;;;20822800;28;20057;-57
2021/09/20 12:30:00;;;;;;;3.15;1.52;;;19.90;56.30;;;;;;20823133;28;20519;-57
2021/09/20 12:40:25;;;;;;;2.92;1.20;;;20.00;56.30;;;;;;20823142;28;20029;-56
2021/09/20 12:50:37;;;;;;;9.18;1.63;;;19.90;55.80;;;;;;20821380;28;20069;-58
2021/09/20 13:00:39;;;;;;;4.75;1.50;;;20.00;55.90;;;;;;20821207;28;20061;-58
2021/09/20 13:10:46;;;;;;;7.22;1.55;;;20.00;55.60;;;;;;20822768;28;20040;-58
2021/09/20 13:20:48;;;;;;;3.47;1.05;;;19.90;55.60;;;;;;20823855;28;20087;-58
2021/09/20 13:30:51;;;;;;;2.33;1.27;;;19.90;55.40;;;;;;20824046;28;20093;-58
2021/09/20 13:40:54;;;;;;;3.05;1.48;;;19.80;55.30;;;;;;20823061;28;20033;-58
2021/09/20 13:50:55;;;;;;;3.55;1.60;;;19.80;55.40;;;;;;20821700;28;20074;-58
2021/09/20 14:00:57;;;;;;;5.45;1.60;;;19.70;55.50;;;;;;20782166;28;20108;-58
2021/09/20 14:10:59;;;;;;;6.82;1.75;;;19.80;55.30;;;;;;20805245;28;20040;-57
2021/09/20 14:21:01;;;;;;;9.02;1.88;;;19.80;55.10;;;;;;20819630;28;20064;-58
2021/09/20 14:31:01;;;;;;;13.60;4.25;;;19.80;55.00;;;;;;20817744;28;20045;-59
2021/09/20 14:41:02;;;;;;;15.43;3.00;;;19.90;55.20;;;;;;20817945;28;20033;-59
2021/09/20 14:51:06;;;;;;;11.40;3.53;;;19.90;55.70;;;;;;20802681;28;20507;-59
2021/09/20 15:01:08;;;;;;;7.47;2.17;;;19.90;55.50;;;;;;20788534;28;20483;-55
2021/09/20 15:11:09;;;;;;;10.75;4.60;;;19.90;55.60;;;;;;20821013;28;20538;-58
2021/09/20 15:21:10;;;;;;;14.10;3.92;;;19.90;55.60;;;;;;20826519;28;20381;-59
2021/09/20 15:31:10;;;;;;;8.57;4.82;;;19.90;56.10;;;;;;20832178;28;20033;-58
2021/09/20 15:41:11;;;;;;;14.68;4.75;;;19.90;56.10;;;;;;20832132;28;20163;-59
2021/09/20 15:51:11;;;;;;;6.63;2.72;;;19.90;56.30;;;;;;20828740;28;20053;-59
2021/09/20 16:01:12;;;;;;;10.18;3.65;;;19.90;56.20;;;;;;20829268;28;20152;-60
2021/09/20 16:11:12;;;;;;;11.40;3.35;;;19.90;56.80;;;;;;20829126;28;20033;-59
2021/09/20 16:21:13;;;;;;;8.30;3.28;;;19.90;56.90;;;;;;20828246;28;20132;-59
2021/09/20 16:31:14;;;;;;;9.07;2.80;;;19.90;57.10;;;;;;20827810;28;20038;-60
2021/09/20 16:41:14;;;;;;;6.47;2.55;;;19.90;57.40;;;;;;20827069;28;20645;-59
2021/09/20 16:51:15;;;;;;;13.77;4.28;;;19.90;57.40;;;;;;20799752;28;20030;-59
2021/09/20 17:01:16;;;;;;;18.50;5.15;;;19.90;57.80;;;;;;20819108;28;20040;-57
2021/09/20 17:11:16;;;;;;;16.77;4.30;;;19.90;57.80;;;;;;20824226;28;20033;-59
2021/09/20 17:21:22;;;;;;;21.60;4.93;;;;;;;;;;20817015;28;20091;-63
2021/09/20 17:31:23;;;;;;;15.20;5.03;;;19.90;57.80;;;;;;20821534;28;20103;-63
2021/09/20 17:41:24;;;;;;;12.85;4.22;;;;;;;;;;20822111;28;20040;-63
2021/09/20 17:51:25;;;;;;;17.05;5.78;;;;;;;;;;20822552;28;20472;-65
2021/09/20 17:57:28;;;;;;;3.22;2.33;;;20.70;60.50;;;;;;198038;27;21229;-63
2021/09/20 17:57:36;;;;;;;8.60;3.25;;;20.90;55.80;;;;;;199704;28;11487;-62
2021/09/20 17:57:43;;;;;;;15.68;4.35;;;20.80;55.70;;;;;;175987;32;107449;-60
2021/09/20 18:07:54;;;;;;;20.98;4.38;;;20.80;55.70;;;;;;20832945;27;20961;-58
2021/09/20 18:17:55;;;;;;;16.20;5.20;;;19.90;59.40;;;;;;20849058;28;20030;-59
2021/09/20 18:27:56;;;;;;;20.42;3.88;;;19.80;61.30;;;;;;20871050;28;20044;-57
2021/09/20 18:37:57;;;;;;;12.40;3.70;;;19.80;62.40;;;;;;20859989;28;20174;-59
2021/09/20 18:47:58;;;;;;;14.73;5.40;;;19.60;63.10;;;;;;20865512;28;20625;-59
2021/09/20 18:57:58;;;;;;;20.27;3.85;;;19.60;62.70;;;;;;20874429;22;20061;-58
2021/09/20 19:08:00;;;;;;;28.85;4.78;;;19.50;62.90;;;;;;20823309;28;20041;-56
2021/09/20 19:18:02;;;;;;;24.42;5.43;;;19.60;62.60;;;;;;20836066;28;21199;-56
2021/09/20 19:28:02;;;;;;;18.67;4.00;;;19.60;63.30;;;;;;20828410;28;20637;-54
2021/09/20 19:38:03;;;;;;;10.70;3.22;;;19.60;63.70;;;;;;20824255;28;20391;-56
2021/09/20 19:48:04;;;;;;;16.67;3.75;;;19.60;64.00;;;;;;20823668;28;20034;-56
2021/09/20 19:58:06;;;;;;;13.88;3.92;;;19.60;64.40;;;;;;20825328;28;20029;-56
2021/09/20 20:08:07;;;;;;;15.07;4.13;;;19.60;64.50;;;;;;20822058;28;20558;-54
2021/09/20 20:18:13;;;;;;;14.20;3.90;;;19.60;64.80;;;;;;20823152;28;20109;-54
2021/09/20 20:28:13;;;;;;;14.68;4.05;;;19.60;63.50;;;;;;20821652;28;20384;-53
2021/09/20 20:38:14;;;;;;;11.60;3.40;;;19.50;64.90;;;;;;20823168;28;20116;-54
2021/09/20 20:48:19;;;;;;;20.60;3.90;;;19.40;65.00;;;;;;20819699;28;20055;-53
2021/09/20 20:58:20;;;;;;;20.08;5.22;;;19.40;65.10;;;;;;20815463;28;20037;-55
2021/09/20 21:08:21;;;;;;;15.88;3.58;;;19.30;66.80;;;;;;20814530;28;20148;-55
2021/09/20 21:18:21;;;;;;;17.05;4.95;;;19.30;66.70;;;;;;20814675;28;20042;-56
2021/09/20 21:28:22;;;;;;;12.93;3.50;;;19.30;66.60;;;;;;20812250;28;20037;-55
2021/09/20 21:38:23;;;;;;;9.50;4.27;;;19.30;66.60;;;;;;20815804;28;20030;-52
2021/09/20 21:48:24;;;;;;;11.57;3.00;;;19.30;66.40;;;;;;20817967;28;20488;-55
2021/09/20 21:58:25;;;;;;;15.50;3.75;;;19.20;66.40;;;;;;20817784;28;20124;-55
2021/09/20 22:08:26;;;;;;;16.80;2.97;;;19.30;66.20;;;;;;20816749;28;20033;-54
2021/09/20 22:18:28;;;;;;;7.40;2.90;;;19.20;66.30;;;;;;20817455;28;20033;-53
2021/09/20 22:28:28;;;;;;;8.18;3.03;;;19.20;66.10;;;;;;20817548;28;20033;-54
2021/09/20 22:38:29;;;;;;;7.63;3.53;;;19.20;66.20;;;;;;20817948;28;20557;-55
2021/09/20 22:48:30;;;;;;;6.28;3.13;;;19.20;65.90;;;;;;20823538;28;20448;-56
2021/09/20 22:58:31;;;;;;;7.13;2.58;;;19.20;65.80;;;;;;20832610;28;20025;-55
2021/09/20 23:08:31;;;;;;;7.07;2.83;;;19.20;65.70;;;;;;20830913;28;20030;-57
2021/09/20 23:18:32;;;;;;;6.70;2.13;;;19.20;65.60;;;;;;20830795;28;20038;-55
2021/09/20 23:28:32;;;;;;;6.50;2.35;;;19.10;65.50;;;;;;20830226;28;20033;-57
2021/09/20 23:38:33;;;;;;;9.77;2.58;;;19.10;65.40;;;;;;20829196;28;20029;-57
2021/09/20 23:48:33;;;;;;;5.45;2.10;;;19.10;65.30;;;;;;20828271;28;20048;-54
2021/09/20 23:58:35;;;;;;;3.85;2.15;;;19.10;65.30;;;;;;20827559;28;20079;-56
